createdAt,value
2023-02-08T00:00:33.566Z,-4.10
2023-02-08T00:03:37.069Z,-4.12
2023-02-08T00:06:40.197Z,-4.14
2023-02-08T00:09:46.069Z,-4.16
2023-02-08T00:12:52.222Z,-4.15
2023-02-08T00:15:56.996Z,-4.15
2023-02-08T00:19:00.115Z,-4.13
2023-02-08T00:22:03.362Z,-4.12
2023-02-08T00:25:07.974Z,-4.16
2023-02-08T00:28:16.203Z,-4.15
2023-02-08T00:31:21.774Z,-4.17
2023-02-08T00:34:25.948Z,-4.20
2023-02-08T00:37:29.169Z,-4.22
2023-02-08T00:40:32.398Z,-4.27
2023-02-08T00:43:38.437Z,-4.27
2023-02-08T00:46:42.836Z,-4.29
2023-02-08T00:49:47.130Z,-4.31
2023-02-08T00:52:50.998Z,-4.34
2023-02-08T00:55:55.252Z,-4.33
2023-02-08T00:58:58.367Z,-4.31
2023-02-08T01:02:04.977Z,-4.40
2023-02-08T01:05:08.955Z,-4.40
2023-02-08T01:08:12.145Z,-4.42
2023-02-08T01:11:20.019Z,-4.43
2023-02-08T01:14:23.398Z,-4.43
2023-02-08T01:17:30.449Z,-4.48
2023-02-08T01:20:37.048Z,-4.48
2023-02-08T01:23:42.227Z,-4.59
2023-02-08T01:26:47.044Z,-4.63
2023-02-08T01:29:53.648Z,-4.60
2023-02-08T01:33:01.043Z,-4.51
2023-02-08T01:36:07.175Z,-4.50
2023-02-08T01:39:12.855Z,-4.53
2023-02-08T01:42:17.729Z,-4.42
2023-02-08T01:45:28.164Z,-4.39
2023-02-08T01:48:38.161Z,-4.38
2023-02-08T01:51:46.672Z,-4.33
2023-02-08T01:54:54.894Z,-4.30
2023-02-08T01:58:05.777Z,-4.51
2023-02-08T02:01:10.084Z,-4.54
2023-02-08T02:04:15.782Z,-4.56
2023-02-08T02:07:21.427Z,-4.59
2023-02-08T02:10:35.120Z,-4.59
2023-02-08T02:13:42.689Z,-4.63
2023-02-08T02:16:46.957Z,-4.66
2023-02-08T02:19:58.381Z,-4.64
2023-02-08T02:23:58.078Z,-4.73
2023-02-08T02:27:27.329Z,-4.78
2023-02-08T02:31:26.807Z,-4.63
2023-02-08T02:34:55.161Z,-4.68
2023-02-08T02:38:11.546Z,-4.74
2023-02-08T02:41:41.406Z,-4.73
2023-02-08T02:44:59.481Z,-4.79
2023-02-08T02:48:13.072Z,-4.86
2023-02-08T02:51:25.268Z,-4.91
2023-02-08T02:54:37.666Z,-4.92
2023-02-08T02:57:45.919Z,-4.94
2023-02-08T03:00:54.920Z,-4.98
2023-02-08T03:04:00.973Z,-5.03
2023-02-08T03:07:15.290Z,-4.96
2023-02-08T03:10:38.732Z,-4.97
2023-02-08T03:14:20.374Z,-4.98
2023-02-08T03:17:47.045Z,-5.01
2023-02-08T03:21:02.204Z,-5.02
2023-02-08T03:24:20.177Z,-5.00
2023-02-08T03:27:32.883Z,-4.91
2023-02-08T03:30:51.133Z,-4.92
2023-02-08T03:34:05.999Z,-4.91
2023-02-08T03:37:22.395Z,-4.92
2023-02-08T03:40:32.425Z,-4.99
2023-02-08T03:43:39.736Z,-5.03
2023-02-08T03:46:48.353Z,-5.03
2023-02-08T03:49:54.567Z,-5.03
2023-02-08T03:53:00.429Z,-4.92
2023-02-08T03:56:12.258Z,-4.90
2023-02-08T03:59:23.234Z,-4.98
2023-02-08T04:02:31.392Z,-4.94
2023-02-08T04:05:34.844Z,-4.92
2023-02-08T04:08:41.710Z,-4.97
2023-02-08T04:11:44.724Z,-5.00
2023-02-08T04:14:48.375Z,-4.99
2023-02-08T04:17:51.449Z,-5.07
2023-02-08T04:20:54.754Z,-4.99
2023-02-08T04:23:59.155Z,-4.97
2023-02-08T04:27:06.040Z,-4.99
2023-02-08T04:30:10.830Z,-4.97
2023-02-08T04:33:14.985Z,-4.99
2023-02-08T04:36:18.042Z,-5.06
2023-02-08T04:39:22.371Z,-5.07
2023-02-08T04:42:25.354Z,-5.09
2023-02-08T04:45:29.898Z,-5.09
2023-02-08T04:48:33.026Z,-5.14
2023-02-08T04:51:38.729Z,-5.09
2023-02-08T04:54:43.131Z,-5.08
2023-02-08T04:57:46.194Z,-5.11
2023-02-08T05:00:49.296Z,-5.09
2023-02-08T05:03:52.413Z,-5.14
2023-02-08T05:06:55.960Z,-5.15
2023-02-08T05:10:06.763Z,-5.18
2023-02-08T05:13:12.813Z,-5.20
2023-02-08T05:16:16.664Z,-5.27
2023-02-08T05:19:19.785Z,-5.27
2023-02-08T05:22:22.854Z,-5.33
2023-02-08T05:25:27.259Z,-5.38
2023-02-08T05:28:30.341Z,-5.38
2023-02-08T05:31:33.646Z,-5.39
2023-02-08T05:34:38.561Z,-5.42
2023-02-08T05:37:44.480Z,-5.40
2023-02-08T05:40:49.022Z,-5.38
2023-02-08T05:44:01.317Z,-5.40
2023-02-08T05:47:06.318Z,-5.42
2023-02-08T05:50:37.038Z,-5.40
2023-02-08T05:53:50.312Z,-5.40
2023-02-08T05:56:55.067Z,-5.40
2023-02-08T06:00:03.788Z,-5.40
2023-02-08T06:03:21.501Z,-5.36
2023-02-08T06:06:33.684Z,-5.36
2023-02-08T06:09:40.232Z,-5.35
2023-02-08T06:12:47.382Z,-5.33
2023-02-08T06:15:51.101Z,-5.34
2023-02-08T06:18:54.424Z,-5.33
2023-02-08T06:22:14.250Z,-5.39
2023-02-08T06:25:20.966Z,-5.42
2023-02-08T06:28:38.455Z,-5.43
2023-02-08T06:32:46.183Z,-5.37
2023-02-08T06:36:19.694Z,-5.41
2023-02-08T06:39:32.099Z,-5.44
2023-02-08T06:42:35.974Z,-5.45
2023-02-08T06:45:40.493Z,-5.42
2023-02-08T06:48:43.547Z,-5.42
2023-02-08T06:51:47.072Z,-5.45
2023-02-08T06:54:50.153Z,-5.41
2023-02-08T06:57:54.831Z,-5.38
2023-02-08T07:00:59.308Z,-5.38
2023-02-08T07:04:02.559Z,-5.36
2023-02-08T07:07:05.701Z,-5.34
2023-02-08T07:10:09.403Z,-5.31
2023-02-08T07:13:12.651Z,-5.26
2023-02-08T07:16:18.658Z,-5.20
2023-02-08T07:19:22.398Z,-5.19
2023-02-08T07:22:25.719Z,-5.15
2023-02-08T07:25:28.691Z,-5.09
2023-02-08T07:28:32.521Z,-5.02
2023-02-08T07:31:38.963Z,-4.95
2023-02-08T07:34:45.593Z,-4.92
2023-02-08T07:37:48.816Z,-4.92
2023-02-08T07:40:51.921Z,-4.90
2023-02-08T07:43:55.064Z,-4.82
2023-02-08T07:46:59.577Z,-4.78
2023-02-08T07:50:02.640Z,-4.71
2023-02-08T07:53:05.823Z,-4.61
2023-02-08T07:56:10.331Z,-4.45
2023-02-08T07:59:16.424Z,-4.38
2023-02-08T08:02:20.918Z,-4.26
2023-02-08T08:05:24.495Z,-4.13
2023-02-08T08:08:27.627Z,-4.09
2023-02-08T08:11:30.768Z,-3.98
2023-02-08T08:14:34.306Z,-3.91
2023-02-08T08:17:42.160Z,-3.85
2023-02-08T08:20:45.541Z,-3.79
2023-02-08T08:23:48.576Z,-3.66
2023-02-08T08:26:51.852Z,-3.60
2023-02-08T08:29:55.651Z,-3.56
2023-02-08T08:33:00.005Z,-3.46
2023-02-08T08:36:05.557Z,-3.36
2023-02-08T08:39:08.650Z,-3.29
2023-02-08T08:42:13.699Z,-3.25
2023-02-08T08:45:17.012Z,-3.11
2023-02-08T08:48:21.806Z,-3.06
2023-02-08T08:51:24.951Z,-2.98
2023-02-08T08:54:30.829Z,-2.76
2023-02-08T08:57:34.236Z,-2.59
2023-02-08T09:00:37.333Z,-2.50
2023-02-08T09:03:41.756Z,-2.38
2023-02-08T09:06:45.296Z,-2.23
2023-02-08T09:09:48.685Z,-2.13
2023-02-08T09:12:53.047Z,-2.02
2023-02-08T09:15:56.225Z,-1.94
2023-02-08T09:19:03.431Z,-1.85
2023-02-08T09:22:08.113Z,-1.73
2023-02-08T09:25:11.378Z,-1.80
2023-02-08T09:28:14.864Z,-1.72
2023-02-08T09:31:22.324Z,-1.62
2023-02-08T09:34:27.076Z,-1.49
2023-02-08T09:37:34.034Z,-1.42
2023-02-08T09:40:47.957Z,-1.38
2023-02-08T09:44:01.122Z,-1.31
2023-02-08T09:47:13.090Z,-1.32
2023-02-08T09:50:23.111Z,-1.19
2023-02-08T09:53:34.309Z,-1.15
2023-02-08T09:56:42.295Z,-1.15
2023-02-08T09:59:53.854Z,-1.03
2023-02-08T10:02:59.893Z,-0.90
2023-02-08T10:06:06.252Z,-0.91
2023-02-08T10:09:15.723Z,-0.82
2023-02-08T10:12:31.004Z,-0.71
2023-02-08T10:15:42.248Z,-0.69
2023-02-08T10:18:51.727Z,-0.61
2023-02-08T10:22:11.493Z,-0.52
2023-02-08T10:25:43.600Z,-0.48
2023-02-08T10:29:27.116Z,-0.51
2023-02-08T10:32:48.205Z,-0.46
2023-02-08T10:35:52.784Z,-0.42
2023-02-08T10:38:58.111Z,-0.31
2023-02-08T10:42:01.364Z,-0.17
2023-02-08T10:45:24.191Z,-0.03
2023-02-08T10:48:42.548Z,0.17
2023-02-08T10:51:46.800Z,0.23
2023-02-08T10:54:51.400Z,0.39
2023-02-08T10:58:00.323Z,0.55
2023-02-08T11:01:03.991Z,0.64
2023-02-08T11:04:11.286Z,0.60
2023-02-08T11:07:22.122Z,0.73
2023-02-08T11:10:27.659Z,0.81
2023-02-08T11:13:36.769Z,0.87
2023-02-08T11:16:43.469Z,1.07
2023-02-08T11:19:48.477Z,1.15
2023-02-08T11:22:51.899Z,1.26
2023-02-08T11:26:15.673Z,1.36
2023-02-08T11:29:23.121Z,1.43
2023-02-08T11:32:26.247Z,1.52
2023-02-08T11:35:33.758Z,1.42
2023-02-08T11:38:42.503Z,1.36
2023-02-08T11:41:48.548Z,1.40
2023-02-08T11:44:52.316Z,1.73
2023-02-08T11:47:55.857Z,1.98
2023-02-08T11:51:02.321Z,2.01
2023-02-08T11:54:07.920Z,2.01
2023-02-08T11:57:20.263Z,1.91
2023-02-08T12:00:27.792Z,1.98
2023-02-08T12:03:35.217Z,1.92
2023-02-08T12:07:10.816Z,1.94
2023-02-08T12:10:57.448Z,2.39
2023-02-08T12:14:27.059Z,2.17
2023-02-08T12:17:54.749Z,2.25
2023-02-08T12:21:05.604Z,2.07
2023-02-08T12:24:18.515Z,2.14
2023-02-08T12:27:41.937Z,2.04
2023-02-08T12:30:53.799Z,2.21
2023-02-08T12:34:27.619Z,2.32
2023-02-08T12:38:04.842Z,2.30
2023-02-08T12:41:19.068Z,2.24
2023-02-08T12:44:39.949Z,2.47
2023-02-08T12:48:14.243Z,2.63
2023-02-08T12:51:45.584Z,2.45
2023-02-08T12:55:01.297Z,2.69
2023-02-08T12:58:25.705Z,2.51
2023-02-08T13:01:51.249Z,2.66
2023-02-08T13:04:59.819Z,2.66
2023-02-08T13:08:14.343Z,2.86
2023-02-08T13:11:25.598Z,2.90
2023-02-08T13:14:37.447Z,2.75
2023-02-08T13:17:51.762Z,2.75
2023-02-08T13:21:09.619Z,2.90
2023-02-08T13:24:27.826Z,2.51
2023-02-08T13:27:33.542Z,2.45
2023-02-08T13:30:41.701Z,2.41
2023-02-08T13:34:01.984Z,2.45
2023-02-08T13:37:25.506Z,2.55
2023-02-08T13:40:32.222Z,2.51
2023-02-08T13:43:41.434Z,2.69
2023-02-08T13:46:48.585Z,2.84
2023-02-08T13:49:59.976Z,2.97
2023-02-08T13:53:05.529Z,3.10
2023-02-08T13:56:12.247Z,2.86
2023-02-08T13:59:37.496Z,3.09
2023-02-08T14:03:00.661Z,3.36
2023-02-08T14:06:07.654Z,3.24
2023-02-08T14:09:21.762Z,3.36
2023-02-08T14:12:35.018Z,3.01
2023-02-08T14:15:43.489Z,3.31
2023-02-08T14:18:54.487Z,3.38
2023-02-08T14:22:03.714Z,3.50
2023-02-08T14:25:19.237Z,3.11
2023-02-08T14:28:34.075Z,3.18
2023-02-08T14:31:48.009Z,3.25
2023-02-08T14:35:05.317Z,3.12
2023-02-08T14:38:53.946Z,2.82
2023-02-08T14:42:03.917Z,2.57
2023-02-08T14:45:29.759Z,2.42
2023-02-08T14:48:36.796Z,2.40
2023-02-08T14:51:51.908Z,2.14
2023-02-08T14:55:04.008Z,2.00
2023-02-08T14:58:20.856Z,2.00
2023-02-08T15:01:43.958Z,1.92
2023-02-08T15:04:47.972Z,1.98
2023-02-08T15:07:56.846Z,1.88
2023-02-08T15:11:00.212Z,1.85
2023-02-08T15:14:06.824Z,1.83
2023-02-08T15:17:29.301Z,1.70
2023-02-08T15:20:44.111Z,1.62
2023-02-08T15:24:01.141Z,1.62
2023-02-08T15:27:21.618Z,1.55
2023-02-08T15:30:34.539Z,1.53
2023-02-08T15:33:47.188Z,1.45
2023-02-08T15:36:55.674Z,1.44
2023-02-08T15:40:01.063Z,1.39
2023-02-08T15:43:15.714Z,1.32
2023-02-08T15:46:26.730Z,1.29
2023-02-08T15:49:33.309Z,1.10
2023-02-08T15:52:42.557Z,1.05
2023-02-08T15:55:51.185Z,0.96
2023-02-08T15:58:57.014Z,0.92
2023-02-08T16:02:19.402Z,0.86
2023-02-08T16:05:28.533Z,0.78
2023-02-08T16:08:35.438Z,0.76
2023-02-08T16:11:38.959Z,0.73
2023-02-08T16:14:52.436Z,0.67
2023-02-08T16:17:57.607Z,0.65
2023-02-08T16:21:02.700Z,0.59
2023-02-08T16:24:21.670Z,0.49
2023-02-08T16:27:28.960Z,0.46
2023-02-08T16:30:35.471Z,0.42
2023-02-08T16:33:40.144Z,0.41
2023-02-08T16:36:51.138Z,0.31
2023-02-08T16:39:57.597Z,0.28
2023-02-08T16:43:18.019Z,0.27
2023-02-08T16:46:27.888Z,0.25
2023-02-08T16:49:32.435Z,0.27
2023-02-08T16:52:36.289Z,0.21
2023-02-08T16:55:39.424Z,0.08
2023-02-08T16:58:48.422Z,0.03
2023-02-08T17:01:56.545Z,0.06
2023-02-08T17:05:01.380Z,-0.02
2023-02-08T17:08:07.818Z,-0.09
2023-02-08T17:11:11.287Z,-0.11
2023-02-08T17:14:15.691Z,-0.17
2023-02-08T17:17:20.049Z,-0.20
2023-02-08T17:20:27.303Z,-0.19
2023-02-08T17:23:30.448Z,-0.27
2023-02-08T17:26:48.582Z,-0.26
2023-02-08T17:29:55.589Z,-0.38
2023-02-08T17:33:01.669Z,-0.38
2023-02-08T17:36:07.922Z,-0.46
2023-02-08T17:39:12.401Z,-0.57
2023-02-08T17:42:18.526Z,-0.62
2023-02-08T17:45:22.509Z,-0.68
2023-02-08T17:48:26.855Z,-0.74
2023-02-08T17:51:32.141Z,-0.69
2023-02-08T17:54:36.872Z,-0.68
2023-02-08T17:57:42.571Z,-0.66
2023-02-08T18:00:46.240Z,-0.74
2023-02-08T18:03:51.190Z,-0.77
2023-02-08T18:06:58.732Z,-0.86
2023-02-08T18:10:04.130Z,-0.88
2023-02-08T18:13:07.805Z,-0.86
2023-02-08T18:16:14.210Z,-0.81
2023-02-08T18:19:17.507Z,-0.89
2023-02-08T18:22:22.924Z,-0.85
2023-02-08T18:25:28.123Z,-0.89
2023-02-08T18:28:31.317Z,-0.94
2023-02-08T18:31:34.665Z,-0.96
2023-02-08T18:34:37.949Z,-0.94
2023-02-08T18:37:42.467Z,-0.96
2023-02-08T18:40:45.542Z,-1.01
2023-02-08T18:43:49.934Z,-1.06
2023-02-08T18:46:53.610Z,-1.04
2023-02-08T18:49:57.904Z,-1.09
2023-02-08T18:53:02.730Z,-1.10
2023-02-08T18:56:09.590Z,-1.14
2023-02-08T18:59:14.152Z,-1.13
2023-02-08T19:02:21.156Z,-1.11
2023-02-08T19:06:09.851Z,-1.17
2023-02-08T19:09:33.088Z,-1.20
2023-02-08T19:12:39.791Z,-1.23
2023-02-08T19:15:47.106Z,-1.25
2023-02-08T19:19:02.948Z,-1.29
2023-02-08T19:23:32.976Z,-1.34
2023-02-08T19:37:50.383Z,-1.50
2023-02-08T19:41:30.898Z,-1.53
2023-02-08T19:49:08.694Z,-1.58
2023-02-08T19:52:13.267Z,-1.60
2023-02-08T19:55:17.014Z,-1.63
2023-02-08T19:58:20.201Z,-1.63
2023-02-08T20:01:27.439Z,-1.64
2023-02-08T20:04:33.311Z,-1.64
2023-02-08T20:07:40.973Z,-1.67
2023-02-08T20:10:47.051Z,-1.69
2023-02-08T20:13:54.887Z,-1.75
2023-02-08T20:16:58.966Z,-1.77
2023-02-08T20:20:02.010Z,-1.78
2023-02-08T20:23:20.866Z,-1.77
2023-02-08T20:26:27.795Z,-1.83
2023-02-08T20:29:31.047Z,-1.81
2023-02-08T20:32:34.150Z,-1.86
2023-02-08T20:35:43.259Z,-1.93
2023-02-08T20:38:49.041Z,-1.91
2023-02-08T20:41:52.146Z,-1.92
2023-02-08T20:44:55.505Z,-1.92
2023-02-08T20:47:58.622Z,-1.93
2023-02-08T20:51:07.096Z,-1.95
2023-02-08T20:54:12.698Z,-1.96
2023-02-08T20:57:18.151Z,-2.00
2023-02-08T21:00:27.947Z,-2.00
2023-02-08T21:03:37.287Z,-2.02
2023-02-08T21:06:44.515Z,-2.03
2023-02-08T21:09:49.210Z,-2.06
2023-02-08T21:12:52.488Z,-2.13
2023-02-08T21:15:55.848Z,-2.07
2023-02-08T21:18:59.725Z,-2.12
2023-02-08T21:22:04.230Z,-2.12
2023-02-08T21:25:10.070Z,-2.15
2023-02-08T21:28:13.871Z,-2.13
2023-02-08T21:31:23.054Z,-2.16
2023-02-08T21:34:26.409Z,-2.17
2023-02-08T21:37:29.923Z,-2.21
2023-02-08T21:40:34.610Z,-2.19
2023-02-08T21:43:39.063Z,-2.25
2023-02-08T21:46:42.479Z,-2.20
2023-02-08T21:50:06.044Z,-2.16
2023-02-08T21:53:28.820Z,-2.29
2023-02-08T21:56:35.415Z,-2.21
2023-02-08T21:59:41.348Z,-2.20
2023-02-08T22:02:44.616Z,-2.15
2023-02-08T22:06:06.334Z,-2.16
2023-02-08T22:09:09.473Z,-2.19
2023-02-08T22:12:17.277Z,-2.19
2023-02-08T22:15:22.836Z,-2.21
2023-02-08T22:18:26.678Z,-2.20
2023-02-08T22:21:29.968Z,-2.22
2023-02-08T22:24:33.893Z,-2.26
2023-02-08T22:27:39.697Z,-2.25
2023-02-08T22:30:43.125Z,-2.23
2023-02-08T22:33:46.337Z,-2.26
2023-02-08T22:36:49.418Z,-2.31
2023-02-08T22:39:52.437Z,-2.33
2023-02-08T22:42:56.890Z,-2.33
2023-02-08T22:46:00.773Z,-2.30
2023-02-08T22:49:04.192Z,-2.32
2023-02-08T22:52:09.150Z,-2.35
2023-02-08T22:55:12.448Z,-2.38
2023-02-08T22:58:16.810Z,-2.38
2023-02-08T23:01:20.798Z,-2.43
2023-02-08T23:04:23.921Z,-2.47
2023-02-08T23:07:27.574Z,-2.55
2023-02-08T23:10:30.767Z,-2.52
2023-02-08T23:13:36.180Z,-2.53
2023-02-08T23:16:39.697Z,-2.53
2023-02-08T23:19:44.865Z,-2.59
2023-02-08T23:22:47.904Z,-2.61
2023-02-08T23:25:53.491Z,-2.68
2023-02-08T23:28:58.093Z,-2.63
2023-02-08T23:32:04.639Z,-2.63
2023-02-08T23:35:10.130Z,-2.61
2023-02-08T23:38:13.322Z,-2.67
2023-02-08T23:41:19.380Z,-2.82
2023-02-08T23:44:26.490Z,-2.76
2023-02-08T23:47:32.877Z,-2.81
2023-02-08T23:50:36.018Z,-2.88
2023-02-08T23:53:39.112Z,-2.88
2023-02-08T23:56:42.138Z,-3.03
2023-02-08T23:59:46.573Z,-2.96
